Terminal Aerodrome Forecast
Issued by NWS

Home | Current Version | Previous Version | Text Only | Print | Product List | Glossary On
Versions: 1 2 3 4 5 6 7 8 9 10 11 12 13
012
FTUS44 KTSA 202337
TAFXNA
TAF
KXNA 202337Z 2100/2124 18012G18KT P6SM FEW025 SCT035
     FM210200 18013KT P6SM BKN025
     FM210500 19015G21KT P6SM BKN015
     FM211900 19017G26KT P6SM BKN025 PROB30 2120/2124 -TSRA
      BKN018CB=

USA.gov is the U.S. government's official web portal to all federal, state and local government web resources and services.